createdAt,value
2018-04-06T00:00:12.226Z,815.55
2018-04-06T00:01:12.234Z,815.52
2018-04-06T00:02:12.239Z,815.56
2018-04-06T00:03:12.248Z,815.54
2018-04-06T00:04:12.255Z,815.56
2018-04-06T00:05:12.264Z,815.59
2018-04-06T00:06:12.269Z,815.58
2018-04-06T00:07:12.276Z,815.55
2018-04-06T00:08:12.281Z,815.52
2018-04-06T00:09:12.289Z,815.51
2018-04-06T00:10:12.294Z,815.53
2018-04-06T00:11:12.302Z,815.52
2018-04-06T00:12:12.309Z,815.54
2018-04-06T00:13:12.315Z,815.47
2018-04-06T00:14:12.322Z,815.47
2018-04-06T00:15:12.330Z,815.46
2018-04-06T00:16:12.336Z,815.45
2018-04-06T00:17:12.344Z,815.45
2018-04-06T00:18:12.349Z,815.43
2018-04-06T00:19:12.362Z,815.41
2018-04-06T00:20:12.367Z,815.40
2018-04-06T00:21:12.370Z,815.39
2018-04-06T00:22:12.375Z,815.40
2018-04-06T00:23:12.383Z,815.35
2018-04-06T00:24:12.390Z,815.40
2018-04-06T00:25:12.399Z,815.36
2018-04-06T00:26:12.403Z,815.36
2018-04-06T00:27:12.414Z,815.43
2018-04-06T00:28:12.416Z,815.39
2018-04-06T00:29:12.424Z,815.38
2018-04-06T00:30:12.433Z,815.39
2018-04-06T00:31:12.436Z,815.40
2018-04-06T00:32:12.444Z,815.38
2018-04-06T00:33:12.451Z,815.40
2018-04-06T00:34:12.456Z,815.37
2018-04-06T00:35:12.463Z,815.40
2018-04-06T00:36:12.470Z,815.43
2018-04-06T00:37:12.478Z,815.43
2018-04-06T00:38:12.482Z,815.43
2018-04-06T00:39:12.492Z,815.42
2018-04-06T00:40:12.496Z,815.41
2018-04-06T00:41:12.505Z,815.41
2018-04-06T00:42:12.509Z,815.43
2018-04-06T00:43:12.516Z,815.39
2018-04-06T00:44:12.523Z,815.37
2018-04-06T00:45:12.531Z,815.36
2018-04-06T00:46:12.538Z,815.40
2018-04-06T00:47:12.544Z,815.36
2018-04-06T00:48:12.551Z,815.35
2018-04-06T00:49:12.560Z,815.35
2018-04-06T00:50:12.562Z,815.35
2018-04-06T00:51:12.572Z,815.40
2018-04-06T00:52:12.578Z,815.40
2018-04-06T00:53:12.583Z,815.38
2018-04-06T00:54:12.592Z,815.42
2018-04-06T00:55:12.597Z,815.37
2018-04-06T00:56:12.604Z,815.36
2018-04-06T00:57:12.610Z,815.37
2018-04-06T00:58:12.616Z,815.31
2018-04-06T00:59:12.624Z,815.37
2018-04-06T01:00:12.634Z,815.37
2018-04-06T01:01:12.636Z,815.39
2018-04-06T01:02:12.641Z,815.39
2018-04-06T01:03:12.650Z,815.40
2018-04-06T01:04:12.657Z,815.37
2018-04-06T01:05:12.669Z,815.39
2018-04-06T01:06:12.669Z,815.39
2018-04-06T01:07:12.674Z,815.38
2018-04-06T01:08:12.682Z,815.33
2018-04-06T01:09:12.690Z,815.35
2018-04-06T01:10:12.695Z,815.31
2018-04-06T01:11:12.702Z,815.33
2018-04-06T01:12:12.708Z,815.33
2018-04-06T01:13:12.715Z,815.35
2018-04-06T01:14:12.720Z,815.33
2018-04-06T01:15:12.730Z,815.35
2018-04-06T01:16:12.739Z,815.38
2018-04-06T01:17:12.742Z,815.32
2018-04-06T01:18:12.746Z,815.35
2018-04-06T01:19:12.753Z,815.36
2018-04-06T01:20:12.759Z,815.34
2018-04-06T01:21:12.768Z,815.33
2018-04-06T01:22:12.774Z,815.30
2018-04-06T01:23:12.780Z,815.27
2018-04-06T01:24:12.788Z,815.30
2018-04-06T01:25:12.799Z,815.30
2018-04-06T01:26:12.800Z,815.29
2018-04-06T01:27:12.805Z,815.31
2018-04-06T01:28:12.813Z,815.29
2018-04-06T01:29:12.824Z,815.29
2018-04-06T01:30:12.823Z,815.30
2018-04-06T01:31:12.831Z,815.26
2018-04-06T01:32:12.838Z,815.23
2018-04-06T01:33:12.845Z,815.28
2018-04-06T01:34:12.850Z,815.25
2018-04-06T01:35:12.856Z,815.24
2018-04-06T01:36:12.865Z,815.26
2018-04-06T01:37:12.874Z,815.26
2018-04-06T01:38:12.876Z,815.26
2018-04-06T01:39:12.882Z,815.26
2018-04-06T01:40:12.896Z,815.24
2018-04-06T01:41:12.897Z,815.23
2018-04-06T01:42:12.902Z,815.24
2018-04-06T01:43:12.909Z,815.21
2018-04-06T01:44:12.914Z,815.22
2018-04-06T01:45:12.922Z,815.18
2018-04-06T01:46:12.927Z,815.21
2018-04-06T01:47:12.933Z,815.19
2018-04-06T01:48:12.940Z,815.17
2018-04-06T01:49:12.947Z,815.15
2018-04-06T01:50:12.960Z,815.18
2018-04-06T01:51:12.958Z,815.18
2018-04-06T01:52:12.964Z,815.20
2018-04-06T01:53:12.971Z,815.19
2018-04-06T01:54:12.977Z,815.20
2018-04-06T01:55:12.985Z,815.15
2018-04-06T01:56:12.990Z,815.11
2018-04-06T01:57:13.027Z,815.11
2018-04-06T01:58:13.004Z,815.08
2018-04-06T01:59:13.010Z,815.12
2018-04-06T02:00:13.016Z,815.12
2018-04-06T02:01:13.022Z,815.09
2018-04-06T02:02:13.028Z,815.12
2018-04-06T02:03:13.034Z,815.08
2018-04-06T02:04:13.040Z,815.07
2018-04-06T02:05:13.047Z,815.08
2018-04-06T02:06:13.052Z,815.13
2018-04-06T02:07:13.060Z,815.09
2018-04-06T02:08:13.066Z,815.08
2018-04-06T02:09:13.070Z,815.07
2018-04-06T02:10:13.077Z,815.08
2018-04-06T02:11:13.084Z,815.07
2018-04-06T02:12:13.090Z,815.07
2018-04-06T02:13:13.096Z,815.07
2018-04-06T02:14:13.103Z,815.07
2018-04-06T02:15:13.109Z,815.04
2018-04-06T02:16:13.119Z,815.04
2018-04-06T02:17:13.121Z,815.04
2018-04-06T02:18:13.127Z,815.07
2018-04-06T02:19:13.133Z,815.05
2018-04-06T02:20:13.141Z,815.06
2018-04-06T02:21:13.145Z,815.03
2018-04-06T02:22:13.152Z,815.02
2018-04-06T02:23:13.158Z,815.03
2018-04-06T02:24:13.164Z,815.04
2018-04-06T02:25:13.172Z,815.02
2018-04-06T02:26:13.176Z,815.07
2018-04-06T02:27:13.183Z,815.06
2018-04-06T02:28:13.189Z,815.10
2018-04-06T02:29:13.198Z,815.05
2018-04-06T02:30:13.207Z,815.07
2018-04-06T02:31:13.208Z,815.06
2018-04-06T02:32:13.219Z,815.05
2018-04-06T02:33:13.224Z,815.06
2018-04-06T02:34:13.228Z,815.07
2018-04-06T02:35:13.233Z,815.07
2018-04-06T02:36:13.239Z,815.03
2018-04-06T02:37:13.246Z,815.03
2018-04-06T02:38:13.252Z,815.03
2018-04-06T02:39:13.257Z,814.99
2018-04-06T02:40:13.264Z,814.95
2018-04-06T02:41:13.273Z,815.00
2018-04-06T02:42:13.275Z,814.98
2018-04-06T02:43:13.281Z,814.98
2018-04-06T02:44:13.289Z,814.98
2018-04-06T02:45:13.295Z,814.98
2018-04-06T02:46:13.300Z,814.96
2018-04-06T02:47:13.307Z,814.95
2018-04-06T02:48:13.315Z,814.94
2018-04-06T02:49:13.320Z,814.97
2018-04-06T02:50:13.335Z,814.96
2018-04-06T02:51:13.332Z,814.96
2018-04-06T02:52:13.339Z,814.96
2018-04-06T02:53:13.346Z,814.95
2018-04-06T02:54:13.351Z,814.93
2018-04-06T02:55:13.373Z,814.95
2018-04-06T02:56:13.362Z,814.92
2018-04-06T02:57:13.373Z,814.92
2018-04-06T02:58:13.374Z,814.94
2018-04-06T02:59:13.381Z,814.92
2018-04-06T03:00:13.387Z,814.95
2018-04-06T03:01:13.393Z,814.92
2018-04-06T03:02:13.399Z,814.94
2018-04-06T03:03:13.405Z,814.93
2018-04-06T03:04:13.412Z,814.95
2018-04-06T03:05:13.422Z,814.93
2018-04-06T03:06:13.423Z,814.90
2018-04-06T03:07:13.430Z,814.93
2018-04-06T03:08:13.437Z,814.94
2018-04-06T03:09:13.454Z,814.93
2018-04-06T03:10:13.448Z,814.91
2018-04-06T03:11:13.459Z,814.90
2018-04-06T03:12:13.461Z,814.97
2018-04-06T03:13:13.474Z,814.93
2018-04-06T03:14:13.473Z,814.92
2018-04-06T03:15:13.480Z,814.95
2018-04-06T03:16:13.489Z,814.97
2018-04-06T03:17:13.494Z,814.95
2018-04-06T03:18:13.498Z,814.97
2018-04-06T03:19:13.505Z,814.97
2018-04-06T03:20:13.511Z,814.98
2018-04-06T03:21:13.518Z,814.95
2018-04-06T03:22:13.524Z,814.97
2018-04-06T03:23:13.530Z,814.97
2018-04-06T03:24:13.535Z,814.96
2018-04-06T03:25:13.542Z,814.95
2018-04-06T03:26:13.549Z,814.98
2018-04-06T03:27:13.555Z,814.97
2018-04-06T03:28:13.562Z,814.96
2018-04-06T03:29:13.567Z,814.95
2018-04-06T03:30:13.573Z,814.97
2018-04-06T03:31:13.579Z,814.97
2018-04-06T03:32:13.585Z,814.95
2018-04-06T03:33:13.596Z,814.99
2018-04-06T03:34:13.597Z,814.92
2018-04-06T03:35:13.603Z,814.95
2018-04-06T03:36:13.610Z,814.95
2018-04-06T03:37:13.619Z,814.93
2018-04-06T03:38:13.623Z,814.95
2018-04-06T03:39:13.629Z,814.95
2018-04-06T03:40:13.635Z,814.94
2018-04-06T03:41:13.641Z,814.94
2018-04-06T03:42:13.646Z,814.93
2018-04-06T03:43:13.653Z,814.94
2018-04-06T03:44:13.660Z,814.88
2018-04-06T03:45:13.666Z,814.90
2018-04-06T03:46:13.671Z,814.90
2018-04-06T03:47:13.678Z,814.87
2018-04-06T03:48:13.682Z,814.88
2018-04-06T03:49:13.690Z,814.91
2018-04-06T03:50:13.696Z,814.90
2018-04-06T03:51:13.708Z,814.91
2018-04-06T03:52:13.708Z,814.96
2018-04-06T03:53:13.715Z,814.89
2018-04-06T03:54:13.721Z,814.91
2018-04-06T03:55:13.729Z,814.91
2018-04-06T03:56:13.733Z,814.96
2018-04-06T03:57:13.740Z,814.94
2018-04-06T03:58:13.743Z,814.94
2018-04-06T03:59:13.751Z,814.96
2018-04-06T04:00:13.757Z,814.95
2018-04-06T04:01:13.764Z,814.96
2018-04-06T04:02:13.769Z,814.92
2018-04-06T04:03:13.791Z,814.96
2018-04-06T04:04:13.782Z,814.94
2018-04-06T04:05:13.789Z,814.91
2018-04-06T04:06:13.793Z,814.91
2018-04-06T04:07:13.799Z,814.89
2018-04-06T04:08:13.807Z,814.89
2018-04-06T04:09:13.811Z,814.90
2018-04-06T04:10:13.817Z,814.87
2018-04-06T04:11:13.823Z,814.94
2018-04-06T04:12:13.830Z,814.89
2018-04-06T04:13:13.835Z,814.88
2018-04-06T04:14:13.841Z,814.89
2018-04-06T04:15:13.847Z,814.87
2018-04-06T04:16:13.854Z,814.88
2018-04-06T04:17:13.861Z,814.87
2018-04-06T04:18:13.865Z,814.88
2018-04-06T04:19:13.873Z,814.92
2018-04-06T04:20:13.877Z,814.90
2018-04-06T04:21:14.134Z,814.88
2018-04-06T04:22:13.889Z,814.88
2018-04-06T04:23:13.896Z,814.86
2018-04-06T04:24:13.902Z,814.92
2018-04-06T04:25:13.907Z,814.89
2018-04-06T04:26:13.913Z,814.87
2018-04-06T04:27:14.198Z,814.90
2018-04-06T04:28:13.925Z,814.89
2018-04-06T04:29:13.931Z,814.91
2018-04-06T04:30:13.936Z,814.89
2018-04-06T04:31:13.948Z,814.89
2018-04-06T04:32:13.949Z,814.89
2018-04-06T04:33:13.980Z,814.89
2018-04-06T04:34:13.961Z,814.88
2018-04-06T04:35:13.968Z,814.83
2018-04-06T04:36:13.973Z,814.83
2018-04-06T04:37:13.978Z,814.84
2018-04-06T04:38:13.983Z,814.87
2018-04-06T04:39:13.992Z,814.82
2018-04-06T04:40:13.997Z,814.81
2018-04-06T04:41:14.003Z,814.78
2018-04-06T04:42:14.013Z,814.82
2018-04-06T04:43:14.014Z,814.78
2018-04-06T04:44:14.018Z,814.79
2018-04-06T04:45:14.034Z,814.79
2018-04-06T04:46:14.034Z,814.80
2018-04-06T04:47:14.038Z,814.76
2018-04-06T04:48:14.045Z,814.77
2018-04-06T04:49:14.050Z,814.79
2018-04-06T04:50:14.055Z,814.78
2018-04-06T04:51:14.066Z,814.76
2018-04-06T04:52:14.067Z,814.77
2018-04-06T04:53:14.095Z,814.78
2018-04-06T04:54:14.079Z,814.80
2018-04-06T04:55:14.086Z,814.79
2018-04-06T04:56:14.091Z,814.77
2018-04-06T04:57:14.099Z,814.81
2018-04-06T04:58:14.102Z,814.79
2018-04-06T04:59:14.110Z,814.80
2018-04-06T05:00:14.116Z,814.79
2018-04-06T05:01:14.123Z,814.80
2018-04-06T05:02:14.127Z,814.83
2018-04-06T05:03:14.133Z,814.81
2018-04-06T05:04:14.141Z,814.83
2018-04-06T05:05:14.146Z,814.86
2018-04-06T05:06:14.150Z,814.82
2018-04-06T05:07:14.157Z,814.85
2018-04-06T05:08:14.163Z,814.81
2018-04-06T05:09:14.170Z,814.83
2018-04-06T05:10:14.174Z,814.82
2018-04-06T05:11:14.181Z,814.83
2018-04-06T05:12:14.188Z,814.81
2018-04-06T05:13:14.198Z,814.81
2018-04-06T05:14:14.199Z,814.82
2018-04-06T05:15:14.206Z,814.81
2018-04-06T05:16:14.212Z,814.82
2018-04-06T05:17:14.218Z,814.81
2018-04-06T05:18:14.222Z,814.81
2018-04-06T05:19:14.232Z,814.83
2018-04-06T05:20:14.238Z,814.81
2018-04-06T05:21:14.242Z,814.82
2018-04-06T05:22:14.256Z,814.85
2018-04-06T05:23:14.257Z,814.88
2018-04-06T05:24:14.265Z,814.86
2018-04-06T05:25:14.267Z,814.85
2018-04-06T05:26:14.274Z,814.87
2018-04-06T05:27:14.280Z,814.90
2018-04-06T05:28:14.285Z,814.89
2018-04-06T05:29:14.291Z,814.93
2018-04-06T05:30:14.299Z,814.87
2018-04-06T05:31:14.303Z,814.90
2018-04-06T05:32:14.312Z,814.91
2018-04-06T05:33:14.318Z,814.87
2018-04-06T05:34:14.322Z,814.90
2018-04-06T05:35:14.327Z,814.91
2018-04-06T05:36:14.334Z,814.91
2018-04-06T05:37:14.340Z,814.98
2018-04-06T05:38:14.346Z,814.93
2018-04-06T05:39:14.354Z,815.00
2018-04-06T05:40:14.360Z,814.96
2018-04-06T05:41:14.369Z,814.97
2018-04-06T05:42:14.373Z,814.95
2018-04-06T05:43:14.378Z,814.95
2018-04-06T05:44:14.385Z,814.97
2018-04-06T05:45:14.391Z,815.02
2018-04-06T05:46:14.396Z,815.02
2018-04-06T05:47:14.401Z,815.04
2018-04-06T05:48:14.411Z,814.99
2018-04-06T05:49:14.417Z,814.98
2018-04-06T05:50:14.420Z,815.03
2018-04-06T05:51:14.430Z,815.03
2018-04-06T05:52:14.435Z,815.05
2018-04-06T05:53:14.443Z,815.04
2018-04-06T05:54:14.448Z,815.07
2018-04-06T05:55:14.457Z,815.08
2018-04-06T05:56:14.460Z,815.10
2018-04-06T05:57:14.468Z,815.08
2018-04-06T05:58:14.478Z,815.13
2018-04-06T05:59:14.480Z,815.12
2018-04-06T06:00:14.486Z,815.11
2018-04-06T06:01:14.494Z,815.11
2018-04-06T06:02:14.500Z,815.14
2018-04-06T06:03:14.506Z,815.16
2018-04-06T06:04:14.514Z,815.17
2018-04-06T06:05:14.520Z,815.17
2018-04-06T06:06:14.526Z,815.18
2018-04-06T06:07:14.541Z,815.13
2018-04-06T06:08:14.544Z,815.18
2018-04-06T06:09:14.547Z,815.19
2018-04-06T06:10:14.550Z,815.17
2018-04-06T06:11:14.558Z,815.12
2018-04-06T06:12:14.566Z,815.16
2018-04-06T06:13:14.573Z,815.19
2018-04-06T06:14:14.578Z,815.18
2018-04-06T06:15:14.589Z,815.18
2018-04-06T06:16:14.594Z,815.21
2018-04-06T06:17:14.599Z,815.22
2018-04-06T06:18:14.605Z,815.22
2018-04-06T06:19:14.612Z,815.22
2018-04-06T06:20:14.620Z,815.26
2018-04-06T06:21:14.625Z,815.26
2018-04-06T06:22:14.632Z,815.24
2018-04-06T06:23:14.677Z,815.28
2018-04-06T06:24:14.646Z,815.34
2018-04-06T06:25:14.653Z,815.30
2018-04-06T06:26:14.659Z,815.32
2018-04-06T06:27:14.666Z,815.32
2018-04-06T06:28:14.673Z,815.32
2018-04-06T06:29:14.711Z,815.34
2018-04-06T06:30:14.687Z,815.30
2018-04-06T06:31:14.693Z,815.30
2018-04-06T06:32:14.701Z,815.34
2018-04-06T06:33:14.708Z,815.32
2018-04-06T06:34:14.715Z,815.31
2018-04-06T06:35:14.722Z,815.30
2018-04-06T06:36:14.729Z,815.31
2018-04-06T06:37:14.735Z,815.37
2018-04-06T06:38:14.743Z,815.35
2018-04-06T06:39:14.750Z,815.38
2018-04-06T06:40:14.756Z,815.37
2018-04-06T06:41:14.763Z,815.41
2018-04-06T06:42:14.771Z,815.41
2018-04-06T06:43:14.785Z,815.40
2018-04-06T06:44:14.785Z,815.41
2018-04-06T06:45:14.793Z,815.41
2018-04-06T06:46:14.801Z,815.46
2018-04-06T06:47:14.805Z,815.42
2018-04-06T06:48:14.855Z,815.46
2018-04-06T06:49:14.822Z,815.43
2018-04-06T06:50:14.826Z,815.42
2018-04-06T06:51:14.837Z,815.43
2018-04-06T06:52:14.843Z,815.41
2018-04-06T06:53:14.849Z,815.46
2018-04-06T06:54:14.855Z,815.45
2018-04-06T06:55:14.868Z,815.46
2018-04-06T06:56:14.870Z,815.43
2018-04-06T06:57:14.880Z,815.43
2018-04-06T06:58:14.886Z,815.46
2018-04-06T06:59:14.896Z,815.43
2018-04-06T07:00:14.902Z,815.44
2018-04-06T07:01:14.909Z,815.42
2018-04-06T07:02:14.914Z,815.46
2018-04-06T07:03:14.922Z,815.42
2018-04-06T07:04:14.929Z,815.44
2018-04-06T07:05:14.938Z,815.40
2018-04-06T07:06:14.945Z,815.44
2018-04-06T07:07:14.952Z,815.42
2018-04-06T07:08:14.962Z,815.42
2018-04-06T07:09:14.972Z,815.43
2018-04-06T07:10:14.976Z,815.40
2018-04-06T07:11:14.985Z,815.42
2018-04-06T07:12:14.992Z,815.42
2018-04-06T07:13:15.000Z,815.43
2018-04-06T07:14:15.008Z,815.45
2018-04-06T07:15:15.016Z,815.45
2018-04-06T07:16:15.023Z,815.47
2018-04-06T07:17:15.033Z,815.43
2018-04-06T07:18:15.039Z,815.44
2018-04-06T07:19:15.046Z,815.43
2018-04-06T07:20:15.055Z,815.48
2018-04-06T07:21:15.062Z,815.50
2018-04-06T07:22:15.070Z,815.47
2018-04-06T07:23:15.078Z,815.44
2018-04-06T07:24:15.097Z,815.47
2018-04-06T07:25:15.098Z,815.46
2018-04-06T07:26:15.106Z,815.49
2018-04-06T07:27:15.113Z,815.49
2018-04-06T07:28:15.118Z,815.49
2018-04-06T07:29:15.127Z,815.46
2018-04-06T07:30:15.133Z,815.49
2018-04-06T07:31:15.142Z,815.50
2018-04-06T07:32:15.156Z,815.50
2018-04-06T07:33:15.161Z,815.49
2018-04-06T07:34:15.165Z,815.51
2018-04-06T07:35:15.180Z,815.47
2018-04-06T07:36:15.183Z,815.50
2018-04-06T07:37:15.192Z,815.51
2018-04-06T07:38:15.199Z,815.48
2018-04-06T07:39:15.211Z,815.49
2018-04-06T07:40:15.217Z,815.47
2018-04-06T07:41:15.226Z,815.48
2018-04-06T07:42:15.244Z,815.43
2018-04-06T07:43:15.242Z,815.41
2018-04-06T07:44:15.266Z,815.41
2018-04-06T07:45:15.259Z,815.43
2018-04-06T07:46:15.267Z,815.42
2018-04-06T07:47:15.277Z,815.43
2018-04-06T07:48:15.285Z,815.43
2018-04-06T07:49:15.300Z,815.45
2018-04-06T07:50:15.301Z,815.43
2018-04-06T07:51:15.311Z,815.38
2018-04-06T07:52:15.320Z,815.45
2018-04-06T07:53:15.329Z,815.45
2018-04-06T07:54:15.336Z,815.44
2018-04-06T07:55:15.345Z,815.42
2018-04-06T07:56:15.355Z,815.42
2018-04-06T07:57:15.364Z,815.48
2018-04-06T07:58:15.371Z,815.47
2018-04-06T07:59:15.381Z,815.51
2018-04-06T08:00:15.390Z,815.48
2018-04-06T08:01:15.399Z,815.49
2018-04-06T08:02:15.406Z,815.45
2018-04-06T08:03:15.421Z,815.46
2018-04-06T08:04:15.426Z,815.48
2018-04-06T08:05:15.434Z,815.52
2018-04-06T08:06:15.445Z,815.48
2018-04-06T08:07:15.452Z,815.49
2018-04-06T08:08:15.463Z,815.52
2018-04-06T08:09:15.472Z,815.48
2018-04-06T08:10:15.481Z,815.45
2018-04-06T08:11:15.491Z,815.49
2018-04-06T08:12:15.500Z,815.50
2018-04-06T08:13:15.512Z,815.51
2018-04-06T08:14:15.520Z,815.50
2018-04-06T08:15:15.528Z,815.50
2018-04-06T08:16:15.536Z,815.51
2018-04-06T08:17:15.547Z,815.49
2018-04-06T08:18:15.555Z,815.54
2018-04-06T08:19:15.566Z,815.52
2018-04-06T08:20:15.575Z,815.52
2018-04-06T08:21:15.584Z,815.53
2018-04-06T08:22:15.594Z,815.52
2018-04-06T08:23:15.603Z,815.54
2018-04-06T08:24:15.616Z,815.57
2018-04-06T08:25:15.623Z,815.59
2018-04-06T08:26:15.666Z,815.54
2018-04-06T08:27:15.642Z,815.57
2018-04-06T08:28:15.654Z,815.61
2018-04-06T08:29:15.664Z,815.59
2018-04-06T08:30:15.692Z,815.57
2018-04-06T08:31:15.683Z,815.61
2018-04-06T08:32:15.692Z,815.58
2018-04-06T08:33:15.702Z,815.61
2018-04-06T08:34:15.712Z,815.59
2018-04-06T08:35:15.721Z,815.60
2018-04-06T08:36:15.734Z,815.64
2018-04-06T08:37:15.742Z,815.62
2018-04-06T08:38:15.752Z,815.66
2018-04-06T08:39:15.763Z,815.67
2018-04-06T08:40:15.782Z,815.64
2018-04-06T08:41:15.784Z,815.67
2018-04-06T08:42:15.795Z,815.65
2018-04-06T08:43:15.802Z,815.70
2018-04-06T08:44:15.814Z,815.70
2018-04-06T08:45:15.823Z,815.69
2018-04-06T08:46:15.834Z,815.69
2018-04-06T08:47:15.845Z,815.70
2018-04-06T08:48:15.855Z,815.72
2018-04-06T08:49:15.866Z,815.74
2018-04-06T08:50:15.876Z,815.75
2018-04-06T08:51:15.888Z,815.78
2018-04-06T08:52:15.898Z,815.79
2018-04-06T08:53:15.908Z,815.78
2018-04-06T08:54:15.919Z,815.81
2018-04-06T08:55:15.933Z,815.77
2018-04-06T08:56:15.941Z,815.79
2018-04-06T08:57:15.952Z,815.82
2018-04-06T08:58:15.962Z,815.84
2018-04-06T08:59:15.974Z,815.83
2018-04-06T09:00:15.986Z,815.81
2018-04-06T09:01:15.996Z,815.84
2018-04-06T09:02:16.004Z,815.83
2018-04-06T09:03:16.018Z,815.82
2018-04-06T09:04:16.029Z,815.86
2018-04-06T09:05:16.040Z,815.84
2018-04-06T09:06:16.051Z,815.83
2018-04-06T09:07:16.060Z,815.84
2018-04-06T09:08:16.072Z,815.85
2018-04-06T09:09:16.087Z,815.84
2018-04-06T09:10:16.096Z,815.87
2018-04-06T09:11:16.107Z,815.83
2018-04-06T09:12:16.119Z,815.84
2018-04-06T09:13:16.129Z,815.84
2018-04-06T09:14:16.142Z,815.87
2018-04-06T09:15:16.156Z,815.88
2018-04-06T09:16:16.164Z,815.88
2018-04-06T09:17:16.177Z,815.89
2018-04-06T09:18:16.190Z,815.90
2018-04-06T09:19:16.198Z,815.92
2018-04-06T09:20:16.211Z,815.90
2018-04-06T09:21:16.277Z,815.90
2018-04-06T09:22:16.233Z,815.90
2018-04-06T09:23:16.244Z,815.91
2018-04-06T09:24:16.256Z,815.93
2018-04-06T09:25:16.270Z,815.93
2018-04-06T09:26:16.281Z,815.92
2018-04-06T09:27:16.296Z,815.91
2018-04-06T09:28:16.306Z,815.89
2018-04-06T09:29:16.317Z,815.91
2018-04-06T09:30:16.329Z,815.93
2018-04-06T09:31:16.342Z,815.88
2018-04-06T09:32:16.355Z,815.88
2018-04-06T09:33:16.365Z,815.91
2018-04-06T09:34:16.377Z,815.91
2018-04-06T09:35:16.391Z,815.93
2018-04-06T09:36:16.404Z,815.95
2018-04-06T09:37:16.414Z,815.96
2018-04-06T09:38:16.425Z,815.99
2018-04-06T09:39:16.439Z,815.94
2018-04-06T09:40:16.451Z,815.97
2018-04-06T09:41:16.464Z,815.99
2018-04-06T09:42:16.477Z,815.99
2018-04-06T09:43:16.488Z,815.96
2018-04-06T09:44:16.502Z,815.94
2018-04-06T09:45:16.515Z,815.94
2018-04-06T09:46:16.527Z,815.95
2018-04-06T09:47:16.544Z,815.92
2018-04-06T09:48:16.556Z,815.89
2018-04-06T09:49:16.571Z,815.94
2018-04-06T09:50:16.578Z,815.97
2018-04-06T09:51:16.593Z,815.93
2018-04-06T09:52:16.605Z,815.94
2018-04-06T09:53:16.618Z,815.95
2018-04-06T09:54:16.631Z,815.93
2018-04-06T09:55:16.644Z,815.93
2018-04-06T09:56:16.658Z,815.91
2018-04-06T09:57:16.671Z,815.95
2018-04-06T09:58:16.684Z,815.94
2018-04-06T09:59:16.697Z,815.93
2018-04-06T10:00:16.711Z,815.97
2018-04-06T10:01:16.726Z,815.95
2018-04-06T10:02:16.738Z,815.95
2018-04-06T10:03:16.752Z,815.95
2018-04-06T10:04:16.769Z,815.93
2018-04-06T10:05:16.779Z,815.97
2018-04-06T10:06:16.792Z,815.96
2018-04-06T10:07:16.806Z,815.96
2018-04-06T10:08:16.820Z,816.02
2018-04-06T10:09:16.834Z,816.00
2018-04-06T10:10:16.850Z,815.96
2018-04-06T10:11:16.861Z,815.98
2018-04-06T10:12:16.875Z,816.03
2018-04-06T10:13:16.891Z,816.01
2018-04-06T10:14:16.905Z,816.02
2018-04-06T10:15:16.917Z,815.98
2018-04-06T10:16:17.011Z,815.99
2018-04-06T10:17:16.947Z,816.01
2018-04-06T10:18:16.960Z,816.00
2018-04-06T10:19:16.976Z,815.97
2018-04-06T10:20:16.988Z,815.95
2018-04-06T10:21:17.008Z,815.97
2018-04-06T10:22:17.013Z,815.91
2018-04-06T10:23:17.029Z,815.93
2018-04-06T10:24:17.042Z,815.92
2018-04-06T10:25:17.058Z,815.91
2018-04-06T10:26:17.070Z,815.94
2018-04-06T10:27:17.085Z,815.98
2018-04-06T10:28:17.098Z,815.93
2018-04-06T10:29:17.114Z,815.94
2018-04-06T10:30:17.127Z,815.92
2018-04-06T10:31:17.142Z,815.96
2018-04-06T10:32:17.158Z,815.92
2018-04-06T10:33:17.185Z,815.95
2018-04-06T10:34:17.184Z,815.96
2018-04-06T10:35:17.200Z,815.94
2018-04-06T10:36:17.213Z,815.95
2018-04-06T10:37:17.231Z,815.97
2018-04-06T10:38:17.246Z,815.96
2018-04-06T10:39:17.257Z,815.98
2018-04-06T10:40:17.273Z,816.00
2018-04-06T10:41:17.288Z,816.00
2018-04-06T10:42:17.302Z,815.96
2018-04-06T10:43:17.316Z,815.99
2018-04-06T10:44:17.332Z,815.97
2018-04-06T10:45:17.348Z,815.98
2018-04-06T10:46:17.360Z,816.01
2018-04-06T10:47:17.377Z,815.92
2018-04-06T10:48:17.389Z,815.93
2018-04-06T10:49:17.408Z,815.96
2018-04-06T10:50:17.425Z,815.94
2018-04-06T10:51:17.437Z,815.95
2018-04-06T10:52:17.461Z,815.92
2018-04-06T10:53:17.470Z,815.97
2018-04-06T10:54:17.488Z,815.94
2018-04-06T10:55:17.499Z,815.95
2018-04-06T10:56:17.514Z,815.93
2018-04-06T10:57:17.531Z,815.91
2018-04-06T10:58:17.549Z,815.95
2018-04-06T10:59:17.562Z,815.95
2018-04-06T11:00:17.577Z,815.95
2018-04-06T11:01:17.601Z,815.93
2018-04-06T11:02:17.608Z,815.95
2018-04-06T11:03:17.624Z,815.95
2018-04-06T11:04:17.641Z,815.92
2018-04-06T11:05:17.656Z,815.93
2018-04-06T11:06:17.675Z,815.94
2018-04-06T11:07:17.686Z,815.94
2018-04-06T11:08:17.705Z,815.90
2018-04-06T11:09:17.720Z,815.95
2018-04-06T11:10:17.742Z,815.94
2018-04-06T11:11:17.751Z,815.89
2018-04-06T11:12:17.767Z,815.93
2018-04-06T11:13:17.784Z,815.91
2018-04-06T11:14:17.805Z,815.95
2018-04-06T11:15:17.814Z,815.89
2018-04-06T11:16:17.837Z,815.89
2018-04-06T11:17:17.848Z,815.90
2018-04-06T11:18:17.864Z,815.92
2018-04-06T11:19:17.880Z,815.92
2018-04-06T11:20:17.900Z,815.87
2018-04-06T11:21:17.913Z,815.89
2018-04-06T11:22:17.928Z,815.89
2018-04-06T11:23:17.943Z,815.92
2018-04-06T11:24:17.960Z,815.91
2018-04-06T11:25:17.980Z,815.93
2018-04-06T11:26:17.991Z,815.88
2018-04-06T11:27:18.008Z,815.88
2018-04-06T11:28:18.024Z,815.94
2018-04-06T11:29:18.040Z,815.88
2018-04-06T11:30:18.057Z,815.93
2018-04-06T11:31:18.074Z,815.93
2018-04-06T11:32:18.092Z,815.95
2018-04-06T11:33:18.106Z,815.92
2018-04-06T11:34:18.122Z,815.89
2018-04-06T11:35:18.139Z,815.97
2018-04-06T11:36:18.154Z,815.92
2018-04-06T11:37:18.171Z,815.93
2018-04-06T11:38:18.187Z,815.93
2018-04-06T11:39:18.204Z,815.94
2018-04-06T11:40:18.220Z,815.92
2018-04-06T11:41:18.237Z,815.93
2018-04-06T11:42:18.250Z,815.88
2018-04-06T11:43:18.268Z,815.91
2018-04-06T11:44:18.284Z,815.90
2018-04-06T11:45:18.301Z,815.90
2018-04-06T11:46:18.317Z,815.89
2018-04-06T11:47:18.334Z,815.90
2018-04-06T11:48:18.350Z,815.90
2018-04-06T11:49:18.367Z,815.92
2018-04-06T11:50:18.386Z,815.92
2018-04-06T11:51:18.399Z,815.87
2018-04-06T11:52:18.417Z,815.93
2018-04-06T11:53:18.433Z,815.92
2018-04-06T11:54:18.450Z,815.95
2018-04-06T11:55:18.464Z,815.94
2018-04-06T11:56:18.482Z,815.94
2018-04-06T11:57:18.498Z,815.90
2018-04-06T11:58:18.519Z,815.88
2018-04-06T11:59:18.531Z,815.89
2018-04-06T12:00:18.549Z,815.88
2018-04-06T12:01:18.567Z,815.93
2018-04-06T12:02:18.582Z,815.90
2018-04-06T12:03:18.596Z,815.92
2018-04-06T12:04:18.614Z,815.90
2018-04-06T12:05:18.631Z,815.98
2018-04-06T12:06:18.647Z,815.93
2018-04-06T12:07:18.664Z,815.91
2018-04-06T12:08:18.683Z,815.92
2018-04-06T12:09:18.698Z,815.90
2018-04-06T12:10:18.715Z,815.93
2018-04-06T12:11:18.732Z,815.89
2018-04-06T12:12:18.752Z,815.89
2018-04-06T12:13:18.764Z,815.90
2018-04-06T12:14:18.781Z,815.89
2018-04-06T12:15:18.797Z,815.87
2018-04-06T12:16:18.815Z,815.89
2018-04-06T12:17:18.831Z,815.86
2018-04-06T12:18:18.853Z,815.88
2018-04-06T12:19:18.864Z,815.86
2018-04-06T12:20:18.882Z,815.90
2018-04-06T12:21:18.900Z,815.86
2018-04-06T12:22:18.918Z,815.85
2018-04-06T12:23:18.932Z,815.88
2018-04-06T12:24:18.952Z,815.85
2018-04-06T12:25:18.968Z,815.84
2018-04-06T12:26:18.983Z,815.90
2018-04-06T12:27:19.002Z,815.89
2018-04-06T12:28:19.018Z,815.89